createdAt,value
2023-03-22T00:00:39.988Z,51.259552
2023-03-22T00:01:39.675Z,51.259605
2023-03-22T00:02:39.694Z,51.259575
2023-03-22T00:03:39.659Z,51.259552
2023-03-22T00:04:39.661Z,51.259598
2023-03-22T00:05:39.602Z,51.259583
2023-03-22T00:06:39.622Z,51.259647
2023-03-22T00:07:39.592Z,51.259636
2023-03-22T00:08:39.570Z,51.259598
2023-03-22T00:09:39.612Z,51.259636
2023-03-22T00:10:39.918Z,51.259521
2023-03-22T00:11:39.547Z,51.259651
2023-03-22T00:12:39.538Z,51.259621
2023-03-22T00:13:39.529Z,51.259640
2023-03-22T00:14:39.529Z,51.259541
2023-03-22T00:15:39.589Z,51.259613
2023-03-22T00:16:39.522Z,51.259598
2023-03-22T00:17:39.483Z,51.259541
2023-03-22T00:18:39.475Z,51.259586
2023-03-22T00:19:39.488Z,51.259583
2023-03-22T00:20:39.741Z,51.259701
2023-03-22T00:21:39.450Z,51.259670
2023-03-22T00:22:39.448Z,51.259636
2023-03-22T00:23:39.431Z,51.259663
2023-03-22T00:24:39.445Z,51.259541
2023-03-22T00:25:39.407Z,51.259556
2023-03-22T00:26:39.418Z,51.259537
2023-03-22T00:27:39.407Z,51.259502
2023-03-22T00:28:39.391Z,51.259541
2023-03-22T00:29:39.421Z,51.259510
2023-03-22T00:30:39.693Z,51.259605
2023-03-22T00:31:39.419Z,51.259586
2023-03-22T00:32:39.377Z,51.259602
2023-03-22T00:33:39.352Z,51.259563
2023-03-22T00:34:39.351Z,51.259617
2023-03-22T00:35:39.372Z,51.259495
2023-03-22T00:36:39.305Z,51.259590
2023-03-22T00:37:39.311Z,51.259716
2023-03-22T00:38:45.549Z,51.259678
2023-03-22T00:39:41.310Z,51.259533
2023-03-22T00:40:40.441Z,51.259449
2023-03-22T00:41:39.262Z,51.259499
2023-03-22T00:42:39.249Z,51.259327
2023-03-22T00:43:39.245Z,51.259457
2023-03-22T00:44:39.266Z,51.259575
2023-03-22T00:45:39.219Z,51.259617
2023-03-22T00:46:39.222Z,51.259640
2023-03-22T00:47:39.202Z,51.259556
2023-03-22T00:48:39.183Z,51.259544
2023-03-22T00:49:39.202Z,51.259556
2023-03-22T00:50:39.395Z,51.259430
2023-03-22T00:51:39.147Z,51.259430
2023-03-22T00:52:39.145Z,51.259445
2023-03-22T00:53:42.424Z,51.259506
2023-03-22T00:54:39.129Z,51.259499
2023-03-22T00:55:39.138Z,51.259499
2023-03-22T00:56:39.120Z,51.259617
2023-03-22T00:57:39.128Z,51.259399
2023-03-22T00:58:39.101Z,51.259598
2023-03-22T00:59:39.082Z,51.259411
2023-03-22T01:00:39.441Z,51.259338
2023-03-22T01:01:39.063Z,51.259518
2023-03-22T01:02:39.051Z,51.259590
2023-03-22T01:03:39.068Z,51.259644
2023-03-22T01:04:39.053Z,51.259480
2023-03-22T01:05:39.061Z,51.259415
2023-03-22T01:06:39.007Z,51.259338
2023-03-22T01:07:39.007Z,51.259274
2023-03-22T01:08:39.412Z,51.259232
2023-03-22T01:09:38.985Z,51.259117
2023-03-22T01:10:39.201Z,51.259281
2023-03-22T01:11:38.948Z,51.259495
2023-03-22T01:12:38.944Z,51.259411
2023-03-22T01:13:38.940Z,51.259438
2023-03-22T01:14:38.929Z,51.259460
2023-03-22T01:15:38.960Z,51.259506
2023-03-22T01:16:38.961Z,51.259533
2023-03-22T01:17:38.901Z,51.259541
2023-03-22T01:18:38.892Z,51.259556
2023-03-22T01:19:38.882Z,51.259541
2023-03-22T01:20:39.293Z,51.259567
2023-03-22T01:21:38.871Z,51.259533
2023-03-22T01:22:38.853Z,51.259533
2023-03-22T01:23:38.849Z,51.259560
2023-03-22T01:24:38.843Z,51.259594
2023-03-22T01:25:38.844Z,51.259594
2023-03-22T01:26:38.809Z,51.259632
2023-03-22T01:27:38.806Z,51.259609
2023-03-22T01:28:38.785Z,51.259579
2023-03-22T01:29:38.786Z,51.259628
2023-03-22T01:30:39.078Z,51.259563
2023-03-22T01:31:38.768Z,51.259598
2023-03-22T01:32:38.763Z,51.259537
2023-03-22T01:33:38.778Z,51.259552
2023-03-22T01:34:38.729Z,51.259537
2023-03-22T01:35:38.769Z,51.259483
2023-03-22T01:36:38.712Z,51.259586
2023-03-22T01:37:38.706Z,51.259575
2023-03-22T01:38:38.715Z,51.259499
2023-03-22T01:39:38.724Z,51.259495
2023-03-22T01:40:39.023Z,51.259548
2023-03-22T01:41:38.672Z,51.259537
2023-03-22T01:42:38.674Z,51.259556
2023-03-22T01:43:38.658Z,51.259552
2023-03-22T01:44:38.639Z,51.259495
2023-03-22T01:45:38.680Z,51.259445
2023-03-22T01:46:38.716Z,51.259491
2023-03-22T01:47:38.610Z,51.259480
2023-03-22T01:48:38.721Z,51.259502
2023-03-22T01:49:38.593Z,51.259575
2023-03-22T01:50:38.882Z,51.259583
2023-03-22T01:51:38.574Z,51.259502
2023-03-22T01:52:38.557Z,51.259502
2023-03-22T01:53:38.556Z,51.259510
2023-03-22T01:54:38.550Z,51.259529
2023-03-22T01:55:38.560Z,51.259506
2023-03-22T01:56:38.525Z,51.259560
2023-03-22T01:57:38.517Z,51.259506
2023-03-22T01:58:38.503Z,51.259480
2023-03-22T01:59:38.500Z,51.259483
2023-03-22T02:00:38.825Z,51.259491
2023-03-22T02:01:38.497Z,51.259529
2023-03-22T02:02:39.530Z,51.259506
2023-03-22T02:03:38.452Z,51.259514
2023-03-22T02:04:38.493Z,51.259514
2023-03-22T02:05:38.469Z,51.259541
2023-03-22T02:06:38.466Z,51.259594
2023-03-22T02:07:38.420Z,51.259571
2023-03-22T02:08:38.406Z,51.259476
2023-03-22T02:09:38.397Z,51.259483
2023-03-22T02:10:38.575Z,51.259499
2023-03-22T02:11:38.374Z,51.259529
2023-03-22T02:12:38.365Z,51.259521
2023-03-22T02:13:38.364Z,51.259529
2023-03-22T02:14:38.353Z,51.259495
2023-03-22T02:15:39.428Z,51.259518
2023-03-22T02:16:38.392Z,51.259460
2023-03-22T02:17:38.326Z,51.259491
2023-03-22T02:18:38.312Z,51.259537
2023-03-22T02:19:38.303Z,51.259598
2023-03-22T02:20:38.699Z,51.259541
2023-03-22T02:21:38.275Z,51.259537
2023-03-22T02:22:38.277Z,51.259556
2023-03-22T02:23:38.260Z,51.259563
2023-03-22T02:24:38.278Z,51.259548
2023-03-22T02:25:38.295Z,51.259510
2023-03-22T02:26:38.234Z,51.259499
2023-03-22T02:27:38.242Z,51.259544
2023-03-22T02:28:38.234Z,51.259556
2023-03-22T02:29:38.207Z,51.259533
2023-03-22T02:30:38.554Z,51.259541
2023-03-22T02:31:38.255Z,51.259487
2023-03-22T02:32:38.190Z,51.259525
2023-03-22T02:33:40.449Z,51.259556
2023-03-22T02:34:38.148Z,51.259628
2023-03-22T02:35:38.184Z,51.259495
2023-03-22T02:36:38.131Z,51.259491
2023-03-22T02:37:38.138Z,51.259556
2023-03-22T02:38:38.113Z,51.259483
2023-03-22T02:39:38.105Z,51.259521
2023-03-22T02:40:38.512Z,51.259602
2023-03-22T02:41:38.094Z,51.259605
2023-03-22T02:42:38.084Z,51.259613
2023-03-22T02:43:38.078Z,51.259567
2023-03-22T02:44:38.050Z,51.259586
2023-03-22T02:45:38.071Z,51.259541
2023-03-22T02:46:38.088Z,51.259491
2023-03-22T02:47:38.027Z,51.259548
2023-03-22T02:48:38.009Z,51.259529
2023-03-22T02:49:38.013Z,51.259548
2023-03-22T02:50:38.435Z,51.259510
2023-03-22T02:51:38.010Z,51.259563
2023-03-22T02:52:37.972Z,51.259636
2023-03-22T02:53:37.958Z,51.259575
2023-03-22T02:54:37.948Z,51.259617
2023-03-22T02:55:37.949Z,51.259609
2023-03-22T02:56:37.953Z,51.259594
2023-03-22T02:57:37.930Z,51.259445
2023-03-22T02:58:37.915Z,51.259529
2023-03-22T02:59:37.905Z,51.259483
2023-03-22T03:00:38.408Z,51.259449
2023-03-22T03:01:37.987Z,51.259510
2023-03-22T03:02:37.872Z,51.259491
2023-03-22T03:03:37.870Z,51.259563
2023-03-22T03:04:37.860Z,51.259583
2023-03-22T03:05:37.848Z,51.259617
2023-03-22T03:06:37.853Z,51.259483
2023-03-22T03:07:37.830Z,51.259468
2023-03-22T03:08:37.813Z,51.259514
2023-03-22T03:09:37.807Z,51.259518
2023-03-22T03:10:38.191Z,51.259541
2023-03-22T03:11:37.811Z,51.259552
2023-03-22T03:12:37.781Z,51.259590
2023-03-22T03:13:37.809Z,51.259571
2023-03-22T03:14:37.759Z,51.259552
2023-03-22T03:15:37.754Z,51.259560
2023-03-22T03:16:37.822Z,51.259502
2023-03-22T03:17:37.729Z,51.259544
2023-03-22T03:18:37.721Z,51.259445
2023-03-22T03:19:37.710Z,51.259525
2023-03-22T03:20:38.304Z,51.259499
2023-03-22T03:21:37.690Z,51.259483
2023-03-22T03:22:37.680Z,51.259453
2023-03-22T03:23:37.670Z,51.259453
2023-03-22T03:24:37.670Z,51.259556
2023-03-22T03:25:37.702Z,51.259583
2023-03-22T03:26:37.649Z,51.259544
2023-03-22T03:27:37.638Z,51.259495
2023-03-22T03:28:37.656Z,51.259476
2023-03-22T03:29:37.619Z,51.259518
2023-03-22T03:30:37.949Z,51.259556
2023-03-22T03:31:37.659Z,51.259594
2023-03-22T03:32:37.584Z,51.259590
2023-03-22T03:33:37.587Z,51.259525
2023-03-22T03:34:37.562Z,51.259525
2023-03-22T03:35:37.636Z,51.259556
2023-03-22T03:36:37.541Z,51.259548
2023-03-22T03:37:37.546Z,51.259563
2023-03-22T03:38:37.517Z,51.259514
2023-03-22T03:39:37.514Z,51.259518
2023-03-22T03:40:37.988Z,51.259529
2023-03-22T03:41:37.495Z,51.259579
2023-03-22T03:42:37.497Z,51.259552
2023-03-22T03:43:37.497Z,51.259583
2023-03-22T03:44:37.493Z,51.259613
2023-03-22T03:45:37.535Z,51.259624
2023-03-22T03:46:37.437Z,51.259644
2023-03-22T03:47:37.432Z,51.259541
2023-03-22T03:48:37.422Z,51.259476
2023-03-22T03:49:37.416Z,51.259480
2023-03-22T03:50:37.691Z,51.259518
2023-03-22T03:51:37.396Z,51.259586
2023-03-22T03:52:37.378Z,51.259518
2023-03-22T03:53:37.370Z,51.259487
2023-03-22T03:54:37.368Z,51.259525
2023-03-22T03:55:37.371Z,51.259590
2023-03-22T03:56:37.350Z,51.259563
2023-03-22T03:57:37.335Z,51.259537
2023-03-22T03:58:37.343Z,51.259541
2023-03-22T03:59:37.332Z,51.259583
2023-03-22T04:00:37.464Z,51.259548
2023-03-22T04:01:37.301Z,51.259598
2023-03-22T04:02:37.376Z,51.259609
2023-03-22T04:03:37.296Z,51.259651
2023-03-22T04:05:09.172Z,51.259628
2023-03-22T04:05:37.263Z,51.259571
2023-03-22T04:06:37.245Z,51.259563
2023-03-22T04:07:37.266Z,51.259659
2023-03-22T04:08:37.228Z,51.259708
2023-03-22T04:09:37.247Z,51.259628
2023-03-22T04:10:37.455Z,51.259735
2023-03-22T04:11:37.201Z,51.259705
2023-03-22T04:12:37.212Z,51.259598
2023-03-22T04:13:37.179Z,51.259705
2023-03-22T04:14:37.169Z,51.259563
2023-03-22T04:15:37.157Z,51.259552
2023-03-22T04:16:37.206Z,51.259720
2023-03-22T04:17:37.167Z,51.259605
2023-03-22T04:18:37.139Z,51.259518
2023-03-22T04:19:37.123Z,51.259384
2023-03-22T04:20:37.453Z,51.259575
2023-03-22T04:21:37.098Z,51.259697
2023-03-22T04:22:37.085Z,51.259628
2023-03-22T04:23:37.084Z,51.259689
2023-03-22T04:24:37.075Z,51.259632
2023-03-22T04:25:37.085Z,51.259632
2023-03-22T04:26:37.090Z,51.259617
2023-03-22T04:27:37.037Z,51.259613
2023-03-22T04:28:37.035Z,51.259651
2023-03-22T04:29:37.009Z,51.259640
2023-03-22T04:30:37.147Z,51.259659
2023-03-22T04:31:36.992Z,51.259594
2023-03-22T04:32:36.983Z,51.259613
2023-03-22T04:33:36.974Z,51.259655
2023-03-22T04:34:36.960Z,51.259609
2023-03-22T04:35:36.988Z,51.259548
2023-03-22T04:36:36.955Z,51.259533
2023-03-22T04:37:36.947Z,51.259644
2023-03-22T04:38:36.931Z,51.259636
2023-03-22T04:39:36.907Z,51.259602
2023-03-22T04:40:38.527Z,51.259632
2023-03-22T04:41:36.921Z,51.259644
2023-03-22T04:42:36.882Z,51.259613
2023-03-22T04:43:36.882Z,51.259571
2023-03-22T04:44:36.870Z,51.259583
2023-03-22T04:45:36.841Z,51.259583
2023-03-22T04:46:37.892Z,51.259613
2023-03-22T04:47:36.827Z,51.259659
2023-03-22T04:48:36.834Z,51.259674
2023-03-22T04:49:36.816Z,51.259640
2023-03-22T04:50:36.943Z,51.259609
2023-03-22T04:51:36.835Z,51.259563
2023-03-22T04:52:36.784Z,51.259556
2023-03-22T04:53:36.772Z,51.259563
2023-03-22T04:54:36.757Z,51.259560
2023-03-22T04:55:36.755Z,51.259525
2023-03-22T04:56:36.789Z,51.259518
2023-03-22T04:57:37.715Z,51.259521
2023-03-22T04:58:36.745Z,51.259533
2023-03-22T04:59:36.726Z,51.259525
2023-03-22T05:00:36.721Z,51.259583
2023-03-22T05:01:36.719Z,51.259548
2023-03-22T05:02:36.745Z,51.259460
2023-03-22T05:03:36.703Z,51.259434
2023-03-22T05:04:36.658Z,51.259468
2023-03-22T05:05:36.651Z,51.259499
2023-03-22T05:06:36.648Z,51.259548
2023-03-22T05:07:36.631Z,51.259514
2023-03-22T05:08:36.676Z,51.259510
2023-03-22T05:09:36.612Z,51.259556
2023-03-22T05:10:36.594Z,51.259541
2023-03-22T05:11:36.636Z,51.259575
2023-03-22T05:12:36.602Z,51.259560
2023-03-22T05:13:36.580Z,51.259579
2023-03-22T05:14:36.649Z,51.259548
2023-03-22T05:15:36.550Z,51.259537
2023-03-22T05:16:37.557Z,51.259415
2023-03-22T05:17:36.538Z,51.259487
2023-03-22T05:18:36.519Z,51.259525
2023-03-22T05:19:36.518Z,51.259502
2023-03-22T05:20:36.514Z,51.259502
2023-03-22T05:21:36.625Z,51.259567
2023-03-22T05:22:36.480Z,51.259548
2023-03-22T05:23:36.496Z,51.259548
2023-03-22T05:24:36.455Z,51.259483
2023-03-22T05:25:36.458Z,51.259548
2023-03-22T05:26:36.482Z,51.259480
2023-03-22T05:27:36.429Z,51.259441
2023-03-22T05:28:36.416Z,51.259407
2023-03-22T05:29:36.408Z,51.259506
2023-03-22T05:30:36.431Z,51.259506
2023-03-22T05:31:36.436Z,51.259441
2023-03-22T05:32:36.382Z,51.259480
2023-03-22T05:33:36.366Z,51.259651
2023-03-22T05:34:36.350Z,51.259567
2023-03-22T05:35:36.406Z,51.259590
2023-03-22T05:36:36.403Z,51.259502
2023-03-22T05:37:36.330Z,51.259411
2023-03-22T05:38:36.333Z,51.259518
2023-03-22T05:39:36.311Z,51.259548
2023-03-22T05:40:36.307Z,51.259556
2023-03-22T05:41:36.969Z,51.259548
2023-03-22T05:42:37.279Z,51.259533
2023-03-22T05:43:36.276Z,51.259544
2023-03-22T05:44:36.261Z,51.259583
2023-03-22T05:45:36.246Z,51.259579
2023-03-22T05:46:36.293Z,51.259525
2023-03-22T05:47:36.225Z,51.259552
2023-03-22T05:48:36.215Z,51.259514
2023-03-22T05:49:36.210Z,51.259525
2023-03-22T05:50:36.219Z,51.259487
2023-03-22T05:51:36.231Z,51.259506
2023-03-22T05:52:36.181Z,51.259541
2023-03-22T05:53:36.162Z,51.259453
2023-03-22T05:54:36.151Z,51.259426
2023-03-22T05:55:36.149Z,51.259476
2023-03-22T05:56:36.200Z,51.259525
2023-03-22T05:57:36.130Z,51.259541
2023-03-22T05:58:36.110Z,51.259560
2023-03-22T05:59:36.107Z,51.259533
2023-03-22T06:00:36.092Z,51.259510
2023-03-22T06:01:36.119Z,51.259586
2023-03-22T06:02:36.079Z,51.259586
2023-03-22T06:03:36.148Z,51.259636
2023-03-22T06:04:36.052Z,51.259499
2023-03-22T06:05:36.051Z,51.259579
2023-03-22T06:06:36.093Z,51.259510
2023-03-22T06:07:36.018Z,51.259468
2023-03-22T06:08:36.018Z,51.259563
2023-03-22T06:09:35.999Z,51.259602
2023-03-22T06:10:36.014Z,51.259464
2023-03-22T06:11:35.996Z,51.259350
2023-03-22T06:12:36.945Z,51.259274
2023-03-22T06:13:35.960Z,51.259212
2023-03-22T06:14:35.965Z,51.259369
2023-03-22T06:15:35.941Z,51.259533
2023-03-22T06:16:36.038Z,51.259617
2023-03-22T06:17:35.915Z,51.259640
2023-03-22T06:18:35.917Z,51.259609
2023-03-22T06:19:35.902Z,51.259506
2023-03-22T06:20:35.948Z,51.259476
2023-03-22T06:21:35.952Z,51.259647
2023-03-22T06:22:35.901Z,51.259689
2023-03-22T06:23:35.867Z,51.259647
2023-03-22T06:24:35.873Z,51.259605
2023-03-22T06:25:35.892Z,51.259590
2023-03-22T06:26:35.907Z,51.259651
2023-03-22T06:27:35.830Z,51.259563
2023-03-22T06:28:35.851Z,51.259483
2023-03-22T06:29:35.807Z,51.259605
2023-03-22T06:30:35.817Z,51.259636
2023-03-22T06:31:35.852Z,51.259636
2023-03-22T06:32:35.789Z,51.259506
2023-03-22T06:33:35.749Z,51.259438
2023-03-22T06:34:35.782Z,51.259384
2023-03-22T06:35:35.794Z,51.259453
2023-03-22T06:36:35.754Z,51.259502
2023-03-22T06:37:35.707Z,51.259544
2023-03-22T06:38:35.714Z,51.259567
2023-03-22T06:39:35.692Z,51.259575
2023-03-22T06:40:35.713Z,51.259563
2023-03-22T06:41:36.744Z,51.259590
2023-03-22T06:42:35.675Z,51.259518
2023-03-22T06:43:35.650Z,51.259632
2023-03-22T06:44:35.647Z,51.259655
2023-03-22T06:45:35.647Z,51.259487
2023-03-22T06:46:35.676Z,51.259422
2023-03-22T06:47:35.620Z,51.259464
2023-03-22T06:48:35.603Z,51.259468
2023-03-22T06:49:35.625Z,51.259457
2023-03-22T06:50:35.581Z,51.259495
2023-03-22T06:51:35.634Z,51.259495
2023-03-22T06:52:35.569Z,51.259499
2023-03-22T06:53:35.550Z,51.259506
2023-03-22T06:54:35.549Z,51.259449
2023-03-22T06:55:35.548Z,51.259403
2023-03-22T06:56:35.618Z,51.259464
2023-03-22T06:57:35.520Z,51.259506
2023-03-22T06:58:35.507Z,51.259403
2023-03-22T06:59:35.496Z,51.259468
2023-03-22T07:00:35.489Z,51.259586
2023-03-22T07:01:35.495Z,51.259583
2023-03-22T07:02:35.501Z,51.259560
2023-03-22T07:03:35.464Z,51.259533
2023-03-22T07:04:35.461Z,51.259537
2023-03-22T07:05:35.619Z,51.259575
2023-03-22T07:06:35.437Z,51.259605
2023-03-22T07:07:35.463Z,51.259556
2023-03-22T07:08:35.449Z,51.259460
2023-03-22T07:09:35.416Z,51.259521
2023-03-22T07:10:35.412Z,51.259445
2023-03-22T07:11:35.406Z,51.259483
2023-03-22T07:12:35.415Z,51.259529
2023-03-22T07:13:35.386Z,51.259590
2023-03-22T07:14:35.364Z,51.259579
2023-03-22T07:15:35.408Z,51.259502
2023-03-22T07:16:35.335Z,51.259460
2023-03-22T07:17:35.356Z,51.259552
2023-03-22T07:18:35.310Z,51.259598
2023-03-22T07:19:35.311Z,51.259640
2023-03-22T07:20:35.303Z,51.259605
2023-03-22T07:21:35.295Z,51.259594
2023-03-22T07:22:35.300Z,51.259560
2023-03-22T07:23:35.280Z,51.259575
2023-03-22T07:24:37.192Z,51.259590
2023-03-22T07:25:36.246Z,51.259628
2023-03-22T07:26:35.239Z,51.259602
2023-03-22T07:27:35.255Z,51.259579
2023-03-22T07:28:35.234Z,51.259563
2023-03-22T07:29:35.206Z,51.259590
2023-03-22T07:30:35.225Z,51.259575
2023-03-22T07:31:35.183Z,51.259598
2023-03-22T07:32:35.248Z,51.259598
2023-03-22T07:33:35.214Z,51.259583
2023-03-22T07:34:35.157Z,51.259560
2023-03-22T07:35:35.242Z,51.259586
2023-03-22T07:36:35.144Z,51.259552
2023-03-22T07:37:35.144Z,51.259525
2023-03-22T07:38:35.129Z,51.259552
2023-03-22T07:39:35.121Z,51.259533
2023-03-22T07:40:35.125Z,51.259556
2023-03-22T07:41:35.091Z,51.259586
2023-03-22T07:42:35.138Z,51.259541
2023-03-22T07:43:47.304Z,51.259537
2023-03-22T07:44:37.065Z,51.259525
2023-03-22T07:45:35.078Z,51.259552
2023-03-22T07:46:35.076Z,51.259533
2023-03-22T07:47:41.042Z,51.259525
2023-03-22T07:48:37.036Z,51.259495
2023-03-22T07:49:35.015Z,51.259510
2023-03-22T07:50:35.055Z,51.259552
2023-03-22T07:51:34.998Z,51.259525
2023-03-22T07:52:35.045Z,51.259613
2023-03-22T07:53:34.988Z,51.259567
2023-03-22T07:54:34.985Z,51.259552
2023-03-22T07:55:34.972Z,51.259563
2023-03-22T07:56:34.957Z,51.259583
2023-03-22T07:57:34.952Z,51.259628
2023-03-22T07:58:34.932Z,51.259583
2023-03-22T07:59:34.919Z,51.259544
2023-03-22T08:00:34.915Z,51.259514
2023-03-22T08:01:34.995Z,51.259548
2023-03-22T08:02:34.927Z,51.259544
2023-03-22T08:03:34.900Z,51.259525
2023-03-22T08:04:34.886Z,51.259525
2023-03-22T08:05:34.864Z,51.259510
2023-03-22T08:06:34.841Z,51.259521
2023-03-22T08:07:35.879Z,51.259514
2023-03-22T08:08:34.844Z,51.259525
2023-03-22T08:09:34.820Z,51.259544
2023-03-22T08:10:34.944Z,51.259544
2023-03-22T08:11:34.809Z,51.259521
2023-03-22T08:12:34.825Z,51.259556
2023-03-22T08:13:34.782Z,51.259613
2023-03-22T08:14:36.825Z,51.259579
2023-03-22T08:15:35.784Z,51.259548
2023-03-22T08:16:34.790Z,51.259529
2023-03-22T08:17:34.762Z,51.259537
2023-03-22T08:18:34.738Z,51.259529
2023-03-22T08:19:34.722Z,51.259556
2023-03-22T08:20:34.717Z,51.259541
2023-03-22T08:21:34.710Z,51.259537
2023-03-22T08:22:34.728Z,51.259510
2023-03-22T08:23:41.796Z,51.259491
2023-03-22T08:24:36.681Z,51.259567
2023-03-22T08:25:34.669Z,51.259529
2023-03-22T08:26:34.658Z,51.259544
2023-03-22T08:27:34.691Z,51.259525
2023-03-22T08:28:34.643Z,51.259499
2023-03-22T08:29:34.641Z,51.259533
2023-03-22T08:30:34.621Z,51.259556
2023-03-22T08:31:34.633Z,51.259495
2023-03-22T08:32:34.617Z,51.259560
2023-03-22T08:33:34.596Z,51.259518
2023-03-22T08:34:34.622Z,51.259518
2023-03-22T08:35:34.574Z,51.259464
2023-03-22T08:36:34.553Z,51.259483
2023-03-22T08:37:34.566Z,51.259441
2023-03-22T08:38:34.539Z,51.259438
2023-03-22T08:39:34.540Z,51.259460
2023-03-22T08:40:34.594Z,51.259453
2023-03-22T08:41:34.513Z,51.259533
2023-03-22T08:42:34.535Z,51.259552
2023-03-22T08:43:34.488Z,51.259449
2023-03-22T08:44:34.481Z,51.259460
2023-03-22T08:45:34.470Z,51.259499
2023-03-22T08:46:34.537Z,51.259491
2023-03-22T08:47:34.470Z,51.259487
2023-03-22T08:48:34.437Z,51.259476
2023-03-22T08:49:34.454Z,51.259499
2023-03-22T08:50:34.455Z,51.259472
2023-03-22T08:51:34.424Z,51.259468
2023-03-22T08:52:34.434Z,51.259388
2023-03-22T08:53:34.419Z,51.259445
2023-03-22T08:54:35.017Z,51.259453
2023-03-22T08:55:34.368Z,51.259449
2023-03-22T08:56:34.367Z,51.259434
2023-03-22T08:57:34.692Z,51.259445
2023-03-22T08:58:35.340Z,51.259457
2023-03-22T08:59:34.357Z,51.259399
2023-03-22T09:00:47.780Z,51.259399
2023-03-22T09:01:36.431Z,51.259476
2023-03-22T09:02:34.349Z,51.259464
2023-03-22T09:03:34.291Z,51.259415
2023-03-22T09:04:34.311Z,51.259342
2023-03-22T09:05:34.277Z,51.259487
2023-03-22T09:06:34.265Z,51.259384
2023-03-22T09:07:34.273Z,51.259457
2023-03-22T09:08:34.234Z,51.259407
2023-03-22T09:09:35.236Z,51.259430
2023-03-22T09:10:34.229Z,51.259476
2023-03-22T09:11:34.214Z,51.259384
2023-03-22T09:12:34.229Z,51.259422
2023-03-22T09:13:34.198Z,51.259415
2023-03-22T09:14:34.191Z,51.259418
2023-03-22T09:15:34.201Z,51.259464
2023-03-22T09:16:34.935Z,51.259445
2023-03-22T09:17:34.152Z,51.259441
2023-03-22T09:18:34.174Z,51.259453
2023-03-22T09:19:35.294Z,51.259422
2023-03-22T09:20:34.156Z,51.259480
2023-03-22T09:21:34.145Z,51.259579
2023-03-22T09:22:34.111Z,51.259460
2023-03-22T09:23:34.110Z,51.259377
2023-03-22T09:24:34.078Z,51.259422
2023-03-22T09:25:34.084Z,51.259495
2023-03-22T09:26:34.072Z,51.259487
2023-03-22T09:27:34.059Z,51.259491
2023-03-22T09:28:34.074Z,51.259518
2023-03-22T09:29:34.033Z,51.259556
2023-03-22T09:30:34.056Z,51.259495
2023-03-22T09:31:34.100Z,51.259483
2023-03-22T09:32:34.749Z,51.259506
2023-03-22T09:33:33.992Z,51.259487
2023-03-22T09:34:33.986Z,51.259487
2023-03-22T09:35:33.998Z,51.259533
2023-03-22T09:36:33.960Z,51.259438
2023-03-22T09:37:33.970Z,51.259483
2023-03-22T09:38:34.014Z,51.259506
2023-03-22T09:39:33.922Z,51.259502
2023-03-22T09:40:33.933Z,51.259472
2023-03-22T09:41:33.916Z,51.259438
2023-03-22T09:42:33.945Z,51.259537
2023-03-22T09:43:33.891Z,51.259533
2023-03-22T09:44:33.883Z,51.259422
2023-03-22T09:45:33.874Z,51.259521
2023-03-22T09:46:33.929Z,51.259548
2023-03-22T09:47:44.476Z,51.259521
2023-03-22T09:48:35.855Z,51.259533
2023-03-22T09:49:46.943Z,51.259518
2023-03-22T09:50:35.828Z,51.259590
2023-03-22T09:51:33.815Z,51.259575
2023-03-22T09:52:33.860Z,51.259541
2023-03-22T09:53:33.802Z,51.259480
2023-03-22T09:54:33.797Z,51.259472
2023-03-22T09:55:33.788Z,51.259464
2023-03-22T09:56:33.762Z,51.259506
2023-03-22T09:57:33.761Z,51.259521
2023-03-22T09:58:33.769Z,51.259476
2023-03-22T09:59:33.745Z,51.259510
2023-03-22T10:00:33.867Z,51.259537
2023-03-22T10:01:34.051Z,51.259502
2023-03-22T10:02:33.759Z,51.259510
2023-03-22T10:03:33.775Z,51.259502
2023-03-22T10:04:33.737Z,51.259495
2023-03-22T10:05:33.709Z,51.259499
2023-03-22T10:06:33.671Z,51.259506
2023-03-22T10:07:46.703Z,51.259506
2023-03-22T10:08:33.648Z,51.259548
2023-03-22T10:09:33.634Z,51.259468
2023-03-22T10:10:33.644Z,51.259422
2023-03-22T10:11:33.636Z,51.259514
2023-03-22T10:12:33.615Z,51.259525
2023-03-22T10:13:33.648Z,51.259556
2023-03-22T10:14:33.585Z,51.259499
2023-03-22T10:15:33.574Z,51.259529
2023-03-22T10:16:33.600Z,51.259521
2023-03-22T10:17:33.559Z,51.259506
2023-03-22T10:18:33.569Z,51.259544
2023-03-22T10:19:33.534Z,51.259529
2023-03-22T10:20:34.560Z,51.259533
2023-03-22T10:21:33.528Z,51.259518
2023-03-22T10:22:33.519Z,51.259556
2023-03-22T10:23:33.556Z,51.259552
2023-03-22T10:24:33.496Z,51.259548
2023-03-22T10:25:33.483Z,51.259544
2023-03-22T10:26:33.492Z,51.259541
2023-03-22T10:27:33.457Z,51.259571
2023-03-22T10:28:33.465Z,51.259563
2023-03-22T10:29:33.447Z,51.259594
2023-03-22T10:30:33.440Z,51.259560
2023-03-22T10:31:33.488Z,51.259552
2023-03-22T10:32:33.424Z,51.259556
2023-03-22T10:33:33.477Z,51.259506
2023-03-22T10:34:33.391Z,51.259556
2023-03-22T10:35:33.425Z,51.259560
2023-03-22T10:36:33.372Z,51.259563
2023-03-22T10:37:33.375Z,51.259567
2023-03-22T10:38:33.441Z,51.259563
2023-03-22T10:39:33.346Z,51.259548
2023-03-22T10:40:33.336Z,51.259541
2023-03-22T10:41:33.347Z,51.259583
2023-03-22T10:42:33.317Z,51.259705
2023-03-22T10:43:33.299Z,51.259731
2023-03-22T10:44:33.323Z,51.259663
2023-03-22T10:45:33.280Z,51.259644
2023-03-22T10:46:33.298Z,51.259583
2023-03-22T10:47:33.261Z,51.259586
2023-03-22T10:48:33.495Z,51.259541
2023-03-22T10:49:33.307Z,51.259575
2023-03-22T10:50:33.239Z,51.259499
2023-03-22T10:51:33.256Z,51.259544
2023-03-22T10:52:33.211Z,51.259541
2023-03-22T10:53:33.217Z,51.259521
2023-03-22T10:54:33.190Z,51.259590
2023-03-22T10:55:33.223Z,51.259571
2023-03-22T10:56:33.180Z,51.259529
2023-03-22T10:57:33.176Z,51.259521
2023-03-22T10:58:33.181Z,51.259586
2023-03-22T10:59:33.144Z,51.259609
2023-03-22T11:00:33.183Z,51.259659
2023-03-22T11:01:33.279Z,51.259644
2023-03-22T11:02:33.222Z,51.259632
2023-03-22T11:03:33.101Z,51.259605
2023-03-22T11:04:33.097Z,51.259636
2023-03-22T11:05:33.091Z,51.259598
2023-03-22T11:06:33.085Z,51.259659
2023-03-22T11:07:33.068Z,51.259666
2023-03-22T11:08:33.078Z,51.259670
2023-03-22T11:09:33.050Z,51.259624
2023-03-22T11:10:33.163Z,51.259659
2023-03-22T11:11:33.051Z,51.259541
2023-03-22T11:12:33.027Z,51.259590
2023-03-22T11:13:33.029Z,51.259621
2023-03-22T11:14:33.005Z,51.259598
2023-03-22T11:15:32.993Z,51.259609
2023-03-22T11:16:33.030Z,51.259632
2023-03-22T11:17:32.971Z,51.259663
2023-03-22T11:18:32.983Z,51.259636
2023-03-22T11:19:32.948Z,51.259602
2023-03-22T11:20:33.015Z,51.259605
2023-03-22T11:21:32.963Z,51.259644
2023-03-22T11:22:32.915Z,51.259644
2023-03-22T11:23:32.941Z,51.259590
2023-03-22T11:24:32.937Z,51.259598